Time;durP1;ratioP1;P1;durP2;ratioP2;P2;SDS_P1;SDS_P2;PMS_P1;PMS_P2;Temp;Humidity;BMP_temperature;BMP_pressure;BME280_temperature;BME280_humidity;BME280_pressure;Samples;Min_cycle;Max_cycle;Signal;HPM_P1;HPM_P2
2022/08/06 00:02:07;;;;;;;2.20;1.80;;;;;;;25.71;39.55;97957.97;5018865;28;20176;-69
2022/08/06 00:04:33;;;;;;;3.20;1.60;;;;;;;25.63;39.78;97956.47;5026429;28;20203;-71
2022/08/06 00:06:59;;;;;;;1.77;1.43;;;;;;;25.56;39.51;97950.38;5033604;28;20589;-71
2022/08/06 00:09:30;;;;;;;2.30;1.43;;;;;;;25.48;40.17;97953.41;5033423;28;20238;-71
2022/08/06 00:11:59;;;;;;;5.00;1.60;;;;;;;25.45;39.89;97955.50;5036083;28;20721;-71
2022/08/06 00:14:26;;;;;;;2.03;1.80;;;;;;;25.39;39.80;97955.56;5042135;28;20446;-71
2022/08/06 00:16:51;;;;;;;1.70;1.50;;;;;;;25.39;40.35;97955.56;5033589;28;20525;-70
2022/08/06 00:19:16;;;;;;;2.47;1.70;;;;;;;25.34;39.78;97958.09;5033165;28;20800;-69
2022/08/06 00:21:42;;;;;;;1.73;1.30;;;;;;;25.28;40.08;97955.31;5034327;28;20279;-70
2022/08/06 00:24:07;;;;;;;1.97;1.33;;;;;;;25.29;40.40;97956.94;5033263;28;20203;-71
2022/08/06 00:26:33;;;;;;;4.83;1.80;;;;;;;25.24;40.00;97956.81;5033105;28;20559;-71
2022/08/06 00:28:58;;;;;;;2.40;1.33;;;;;;;25.20;40.17;97958.34;5038429;28;20172;-70
2022/08/06 00:31:24;;;;;;;2.73;1.40;;;;;;;25.12;40.37;97951.44;5030989;28;20183;-71
2022/08/06 00:33:49;;;;;;;2.33;1.50;;;;;;;25.13;40.40;97960.28;5027763;28;21149;-70
2022/08/06 00:36:15;;;;;;;4.13;1.60;;;;;;;25.12;40.31;97962.16;5032969;28;20183;-72
2022/08/06 00:38:40;;;;;;;3.43;1.60;;;;;;;25.13;40.70;97957.59;5033188;28;20207;-71
2022/08/06 00:41:06;;;;;;;3.00;1.57;;;;;;;25.18;40.33;97960.41;5031776;28;20176;-70
2022/08/06 00:43:31;;;;;;;2.60;1.50;;;;;;;25.19;40.59;97962.06;5035909;28;20211;-70
2022/08/06 00:45:57;;;;;;;2.03;1.50;;;;;;;25.21;40.43;97968.00;5033535;28;20294;-71
2022/08/06 00:48:22;;;;;;;2.17;1.47;;;;;;;25.21;40.31;97970.66;5032546;28;20639;-70
2022/08/06 00:50:47;;;;;;;3.17;1.77;;;;;;;25.25;40.23;97966.50;5032862;28;20263;-70
2022/08/06 00:53:13;;;;;;;1.83;1.70;;;;;;;25.27;39.79;97975.13;5032090;28;20180;-71
2022/08/06 00:55:38;;;;;;;2.63;1.60;;;;;;;25.27;39.64;97977.81;5032533;28;20233;-71
2022/08/06 00:58:04;;;;;;;2.47;1.50;;;;;;;25.25;39.89;97971.84;5030891;28;20179;-71
2022/08/06 01:00:30;;;;;;;4.70;1.20;;;;;;;25.28;39.72;97982.13;5032960;28;20179;-70
2022/08/06 01:02:56;;;;;;;1.43;1.33;;;;;;;25.26;39.78;97988.78;5026864;28;20230;-71
2022/08/06 01:05:21;;;;;;;2.80;1.30;;;;;;;25.25;39.94;97987.16;5032035;28;20212;-69
2022/08/06 01:07:47;;;;;;;4.60;1.60;;;;;;;25.22;39.70;97991.09;5032502;28;20184;-70
2022/08/06 01:10:12;;;;;;;2.10;1.47;;;;;;;25.23;40.04;97991.91;5032224;28;20193;-71
2022/08/06 01:12:37;;;;;;;2.73;1.20;;;;;;;25.24;39.55;97990.88;5035472;28;20186;-70
2022/08/06 01:15:04;;;;;;;1.87;1.67;;;;;;;25.25;39.43;97995.19;5032689;28;20685;-70
2022/08/06 01:17:44;;;;;;;4.50;1.80;;;;;;;25.20;39.64;97998.56;5026392;28;20271;-70
2022/08/06 01:20:18;;;;;;;3.43;1.47;;;;;;;25.15;39.95;97998.41;5030578;28;20453;-71
2022/08/06 01:23:07;;;;;;;2.07;1.30;;;;;;;25.18;39.34;97997.13;5022909;28;20435;-70
2022/08/06 01:26:00;;;;;;;3.37;1.40;;;;;;;25.09;39.05;97988.59;5016820;28;20470;-72
2022/08/06 01:28:35;;;;;;;5.03;1.20;;;;;;;25.03;39.33;97984.16;5032966;28;20425;-70
2022/08/06 01:31:10;;;;;;;2.03;1.50;;;;;;;24.84;38.58;97987.69;5028583;28;20492;-70
2022/08/06 01:33:59;;;;;;;3.17;1.33;;;;;;;24.82;39.30;97997.81;5026093;28;20453;-70
2022/08/06 01:36:33;;;;;;;5.50;1.43;;;;;;;24.85;39.15;97985.81;5030385;28;20510;-70
2022/08/06 01:39:00;;;;;;;1.80;1.20;;;;;;;24.81;39.01;97995.38;5031596;28;20429;-70
2022/08/06 01:41:39;;;;;;;2.53;1.43;;;;;;;24.82;39.34;97994.31;5023189;28;20561;-70
2022/08/06 01:44:10;;;;;;;2.03;1.10;;;;;;;24.86;38.90;97994.69;5041957;28;20528;-70
2022/08/06 01:46:39;;;;;;;1.50;1.40;;;;;;;24.91;39.20;97998.31;5030614;28;20470;-70
2022/08/06 01:49:05;;;;;;;2.37;1.27;;;;;;;24.95;38.82;97998.69;5028903;28;20945;-71
2022/08/06 01:51:32;;;;;;;4.80;1.23;;;;;;;24.98;39.34;97991.00;5030610;28;20418;-71
2022/08/06 01:53:59;;;;;;;2.20;1.23;;;;;;;24.92;38.29;97989.22;5031811;28;20529;-70
2022/08/06 01:56:26;;;;;;;3.73;1.43;;;;;;;24.87;38.94;97997.13;5029426;28;20430;-70
2022/08/06 01:58:53;;;;;;;1.53;1.10;;;;;;;24.82;38.04;98005.03;5025555;28;20476;-70
2022/08/06 02:01:19;;;;;;;1.70;1.40;;;;;;;24.87;38.33;98002.50;5030216;28;20427;-70
2022/08/06 02:03:46;;;;;;;2.00;1.10;;;;;;;24.68;38.33;98005.16;5030985;28;20536;-70
2022/08/06 02:06:16;;;;;;;3.40;1.53;;;;;;;24.65;38.56;98008.28;5030009;28;20454;-70
2022/08/06 02:08:43;;;;;;;2.17;1.40;;;;;;;24.65;38.77;97999.41;5030231;28;20498;-70
2022/08/06 02:11:10;;;;;;;5.40;1.40;;;;;;;24.65;39.26;97994.06;5029818;28;20484;-70
2022/08/06 02:13:36;;;;;;;2.00;1.40;;;;;;;24.57;38.65;98002.41;5031716;28;20497;-70
2022/08/06 02:16:03;;;;;;;1.77;1.50;;;;;;;24.55;38.67;98005.31;5026704;28;20446;-70
2022/08/06 02:18:32;;;;;;;1.80;1.33;;;;;;;24.46;39.02;98012.00;5029973;28;20414;-70
2022/08/06 02:21:00;;;;;;;4.70;1.20;;;;;;;24.44;38.75;98016.78;5030606;28;20781;-69
2022/08/06 02:23:26;;;;;;;3.23;1.67;;;;;;;24.39;39.05;98012.91;5030918;28;20449;-70
2022/08/06 02:25:53;;;;;;;1.60;1.00;;;;;;;24.33;39.04;98011.09;5026484;28;20466;-70
2022/08/06 02:28:19;;;;;;;2.50;1.43;;;;;;;24.28;39.02;98010.97;5029911;28;20433;-71
2022/08/06 02:30:46;;;;;;;1.73;1.20;;;;;;;24.16;39.65;98013.53;5029785;28;20514;-72
2022/08/06 02:33:13;;;;;;;2.30;1.33;;;;;;;24.17;39.49;98014.38;5030940;28;20800;-70
2022/08/06 02:35:52;;;;;;;3.33;1.30;;;;;;;24.18;39.95;98013.31;5030674;28;20433;-70
2022/08/06 02:38:25;;;;;;;2.60;1.30;;;;;;;24.17;39.62;98017.03;5025129;28;20434;-70
2022/08/06 02:40:56;;;;;;;3.60;2.03;;;;;;;24.21;39.79;98018.22;5029750;28;20422;-69
2022/08/06 02:43:32;;;;;;;3.47;1.40;;;;;;;24.25;39.38;98011.41;5032592;28;20509;-70
2022/08/06 02:46:04;;;;;;;3.10;1.30;;;;;;;24.32;39.26;98022.03;5029452;28;20454;-70
2022/08/06 02:48:35;;;;;;;6.60;1.60;;;;;;;24.36;39.64;98024.03;5029389;28;20778;-70
2022/08/06 02:51:05;;;;;;;2.43;1.30;;;;;;;24.35;39.15;98024.28;5022483;28;20430;-70
2022/08/06 02:53:43;;;;;;;2.73;1.47;;;;;;;24.32;39.46;98022.84;5030740;28;20442;-72
2022/08/06 02:56:11;;;;;;;1.87;1.50;;;;;;;24.36;39.59;98023.25;5025868;28;20418;-71
2022/08/06 02:58:48;;;;;;;3.00;1.53;;;;;;;24.30;39.89;98022.28;5029406;28;20437;-70
2022/08/06 03:01:21;;;;;;;1.20;1.10;;;;;;;24.30;39.69;98026.78;5029233;28;20462;-70
2022/08/06 03:03:48;;;;;;;2.60;1.47;;;;;;;24.31;39.79;98021.22;5030674;28;20477;-70
2022/08/06 03:06:15;;;;;;;2.90;1.53;;;;;;;24.31;39.69;98013.19;5029055;28;20552;-70
2022/08/06 03:08:41;;;;;;;2.77;1.30;;;;;;;24.38;39.83;98013.94;5029489;28;20423;-70
2022/08/06 03:11:08;;;;;;;6.10;1.63;;;;;;;24.39;39.66;98023.63;5030541;28;20936;-70
2022/08/06 03:13:34;;;;;;;4.67;1.50;;;;;;;24.34;39.20;98015.41;5029412;28;20204;-70
2022/08/06 03:16:00;;;;;;;10.70;2.57;;;;;;;24.25;39.52;98015.94;5031925;28;20891;-70
2022/08/06 03:18:27;;;;;;;3.63;1.97;;;;;;;24.23;39.75;98019.66;5041261;28;20438;-71
2022/08/06 03:20:53;;;;;;;5.80;1.40;;;;;;;24.16;39.98;98020.75;5027961;28;20649;-69
2022/08/06 03:23:19;;;;;;;2.97;1.50;;;;;;;24.17;40.03;98025.06;5020694;28;20474;-70
2022/08/06 03:25:45;;;;;;;3.00;1.23;;;;;;;24.15;39.99;98029.81;5043832;28;20263;-70
2022/08/06 03:28:11;;;;;;;2.70;1.30;;;;;;;24.16;40.10;98023.44;5035030;28;20489;-69
2022/08/06 03:30:38;;;;;;;3.20;1.40;;;;;;;24.20;40.01;98025.44;5030598;28;20442;-70
2022/08/06 03:33:08;;;;;;;4.33;1.50;;;;;;;24.23;39.85;98030.38;5037699;28;20434;-73
2022/08/06 03:35:34;;;;;;;4.33;1.40;;;;;;;24.27;40.17;98040.63;5042135;28;20422;-70
2022/08/06 03:38:00;;;;;;;5.43;1.40;;;;;;;24.29;40.35;98044.72;5033870;28;20512;-71
2022/08/06 03:40:26;;;;;;;1.90;1.40;;;;;;;24.29;40.03;98050.09;5050565;28;20900;-71
2022/08/06 03:42:51;;;;;;;4.40;1.60;;;;;;;24.28;39.85;98051.13;5039889;28;20191;-71
2022/08/06 03:45:17;;;;;;;2.00;1.23;;;;;;;24.19;40.28;98047.09;5042002;28;20213;-70
2022/08/06 03:47:48;;;;;;;1.63;1.00;;;;;;;24.17;40.06;98046.50;5047587;28;20191;-69
2022/08/06 03:50:16;;;;;;;2.40;1.50;;;;;;;24.15;40.36;98052.06;5033750;28;20188;-70
2022/08/06 03:52:44;;;;;;;2.37;1.57;;;;;;;24.15;40.34;98052.06;5023726;28;20948;-69
2022/08/06 03:55:15;;;;;;;1.40;1.10;;;;;;;24.12;40.19;98054.34;5040796;28;20522;-70
2022/08/06 03:57:43;;;;;;;6.83;1.80;;;;;;;24.05;40.29;98049.91;5049841;28;20460;-70
2022/08/06 04:00:11;;;;;;;2.70;1.40;;;;;;;24.02;40.80;98055.69;5031884;28;20461;-70
2022/08/06 04:02:38;;;;;;;1.73;1.30;;;;;;;24.05;40.50;98052.56;5051485;28;20421;-70
2022/08/06 04:05:05;;;;;;;2.37;1.33;;;;;;;23.97;40.51;98058.19;5043057;28;21014;-73
2022/08/06 04:07:30;;;;;;;3.20;1.40;;;;;;;23.85;40.83;98055.38;5044055;28;20413;-69
2022/08/06 04:09:56;;;;;;;5.57;1.43;;;;;;;23.85;41.09;98055.38;5033587;28;20504;-70
2022/08/06 04:12:22;;;;;;;3.33;1.53;;;;;;;23.84;40.88;98064.44;5046680;28;20638;-70
2022/08/06 04:14:48;;;;;;;3.57;1.57;;;;;;;23.85;40.69;98060.72;5048827;28;20213;-70
2022/08/06 04:17:14;;;;;;;1.47;1.30;;;;;;;23.76;40.93;98062.84;5035576;28;20451;-71
2022/08/06 04:19:39;;;;;;;1.97;1.40;;;;;;;23.70;41.29;98058.34;5045610;28;20194;-71
2022/08/06 04:22:05;;;;;;;2.10;1.67;;;;;;;23.68;41.16;98068.47;5046260;28;20430;-70
2022/08/06 04:24:30;;;;;;;2.30;1.87;;;;;;;23.72;41.37;98063.50;5030348;28;20324;-70
2022/08/06 04:26:58;;;;;;;2.23;1.60;;;;;;;23.73;41.35;98071.28;5035211;28;20675;-70
2022/08/06 04:29:24;;;;;;;1.83;1.30;;;;;;;23.80;41.28;98075.78;5029782;28;21231;-70
2022/08/06 04:31:50;;;;;;;2.60;1.47;;;;;;;23.82;41.27;98073.72;5044554;28;20560;-69
2022/08/06 04:34:23;;;;;;;3.97;1.50;;;;;;;23.85;41.23;98075.94;5034361;28;20238;-69
2022/08/06 04:36:49;;;;;;;4.80;1.70;;;;;;;23.81;41.15;98080.91;5042448;28;20823;-71
2022/08/06 04:39:15;;;;;;;5.90;1.40;;;;;;;23.75;41.36;98085.28;5042319;28;20457;-70
2022/08/06 04:41:41;;;;;;;1.93;1.30;;;;;;;23.77;41.16;98085.06;5038312;28;20849;-70
2022/08/06 04:44:06;;;;;;;2.20;1.30;;;;;;;23.74;41.16;98086.31;5040721;28;20200;-70
2022/08/06 04:46:32;;;;;;;4.17;1.40;;;;;;;23.70;41.48;98073.59;5042452;28;20803;-70
2022/08/06 04:48:58;;;;;;;3.40;1.40;;;;;;;23.70;41.78;98079.75;5040259;28;20193;-70
2022/08/06 04:51:24;;;;;;;2.37;1.40;;;;;;;23.71;41.54;98086.75;5041956;28;20267;-72
2022/08/06 04:53:49;;;;;;;3.57;1.40;;;;;;;23.72;41.25;98088.38;5035489;28;20224;-70
2022/08/06 04:56:14;;;;;;;2.50;1.60;;;;;;;23.68;41.63;98097.91;5043536;28;20183;-72
2022/08/06 04:58:40;;;;;;;3.40;1.60;;;;;;;23.60;41.69;98098.97;5048424;28;20676;-71
2022/08/06 05:01:05;;;;;;;2.40;1.43;;;;;;;23.64;42.00;98099.34;5045059;28;20249;-70
2022/08/06 05:03:31;;;;;;;2.83;1.40;;;;;;;23.62;42.00;98098.75;5042883;28;20209;-70
2022/08/06 05:06:09;;;;;;;3.90;1.57;;;;;;;23.58;41.60;98106.38;5039891;28;20671;-69
2022/08/06 05:08:39;;;;;;;2.70;1.50;;;;;;;23.63;41.81;98111.09;5035078;28;20214;-71
2022/08/06 05:11:25;;;;;;;1.93;1.60;;;;;;;23.63;41.94;98111.09;5037251;28;20800;-71
2022/08/06 05:13:54;;;;;;;1.83;1.60;;;;;;;23.59;41.82;98116.06;5039040;28;20453;-70
2022/08/06 05:16:20;;;;;;;2.97;1.37;;;;;;;23.53;41.95;98114.22;5028526;28;20984;-70
2022/08/06 05:18:50;;;;;;;2.27;1.57;;;;;;;23.47;42.12;98121.25;5037764;28;20526;-70
2022/08/06 05:21:20;;;;;;;2.70;1.50;;;;;;;23.48;42.33;98114.06;5046321;28;20444;-70
2022/08/06 05:23:48;;;;;;;8.40;1.50;;;;;;;23.50;42.28;98121.84;5022114;28;20489;-70
2022/08/06 05:26:14;;;;;;;2.00;1.60;;;;;;;23.57;42.14;98122.63;5047272;28;20865;-71
2022/08/06 05:28:40;;;;;;;1.73;1.47;;;;;;;23.60;42.39;98119.53;5042597;28;20430;-70
2022/08/06 05:31:05;;;;;;;3.10;1.30;;;;;;;23.61;42.11;98127.38;5021230;28;20202;-70
2022/08/06 05:33:36;;;;;;;4.20;1.90;;;;;;;23.60;42.05;98127.56;5043786;28;20438;-69
2022/08/06 05:36:03;;;;;;;1.77;1.63;;;;;;;23.62;41.94;98122.81;5045100;28;20266;-70
2022/08/06 05:38:31;;;;;;;5.13;2.13;;;;;;;23.66;42.11;98132.06;5043551;28;20939;-71
2022/08/06 05:40:56;;;;;;;3.53;1.33;;;;;;;23.65;42.07;98130.44;5037891;28;20415;-70
2022/08/06 05:43:22;;;;;;;1.93;1.40;;;;;;;23.67;42.34;98139.06;5044263;28;20426;-69
2022/08/06 05:45:51;;;;;;;1.57;1.20;;;;;;;23.63;42.11;98132.50;5049269;28;20259;-69
2022/08/06 05:48:18;;;;;;;4.03;1.60;;;;;;;23.66;42.02;98136.59;5006584;28;20787;-70
2022/08/06 05:50:49;;;;;;;6.17;1.60;;;;;;;23.64;42.09;98139.50;5043762;28;20425;-70
2022/08/06 05:53:20;;;;;;;2.37;1.50;;;;;;;23.63;42.39;98140.53;5042800;28;20433;-70
2022/08/06 05:56:00;;;;;;;2.97;1.70;;;;;;;23.66;42.32;98142.78;5043503;28;20417;-69
2022/08/06 05:58:36;;;;;;;1.50;1.10;;;;;;;23.72;42.48;98144.56;5045016;28;20551;-69
2022/08/06 06:01:04;;;;;;;5.23;1.70;;;;;;;23.80;42.47;98143.50;5039959;28;20773;-69
2022/08/06 06:03:30;;;;;;;2.63;1.43;;;;;;;23.87;42.28;98146.16;5027085;28;20445;-69
2022/08/06 06:05:56;;;;;;;3.17;1.67;;;;;;;23.93;42.15;98148.78;5038168;28;20464;-68
2022/08/06 06:08:22;;;;;;;2.43;1.57;;;;;;;24.00;42.02;98154.13;5040529;28;20180;-71
2022/08/06 06:10:48;;;;;;;4.73;1.57;;;;;;;24.03;41.82;98153.69;5039620;28;20438;-69
2022/08/06 06:13:14;;;;;;;8.50;1.60;;;;;;;24.07;41.77;98154.88;5041777;28;20261;-70
2022/08/06 06:15:43;;;;;;;2.60;1.57;;;;;;;24.10;41.71;98153.66;5047576;28;20684;-69
2022/08/06 06:18:09;;;;;;;2.60;1.67;;;;;;;24.15;41.72;98150.31;5042464;28;20434;-70
2022/08/06 06:20:46;;;;;;;2.37;1.60;;;;;;;24.14;41.93;98164.75;5049246;28;20583;-69
2022/08/06 06:23:17;;;;;;;2.53;1.43;;;;;;;24.26;41.85;98167.56;5043013;28;20183;-70
2022/08/06 06:26:10;;;;;;;1.93;1.50;;;;;;;24.38;41.28;98166.63;5041591;28;20453;-71
2022/08/06 06:28:42;;;;;;;1.70;1.50;;;;;;;24.47;40.79;98169.00;5034665;28;20427;-70
2022/08/06 06:31:29;;;;;;;3.77;1.50;;;;;;;24.54;40.63;98165.22;5031986;28;20434;-70
2022/08/06 06:34:09;;;;;;;7.70;1.90;;;;;;;24.62;40.91;98172.19;5040093;28;20540;-70
2022/08/06 06:36:47;;;;;;;2.50;1.80;;;;;;;24.75;40.51;98175.81;5026114;28;20896;-70
2022/08/06 06:39:24;;;;;;;2.07;1.87;;;;;;;24.73;40.63;98177.88;5041653;28;20914;-70
2022/08/06 06:41:55;;;;;;;2.70;1.50;;;;;;;24.72;40.82;98187.81;5030043;28;20875;-70
2022/08/06 06:44:26;;;;;;;2.10;1.60;;;;;;;24.65;40.99;98187.00;5042237;28;20446;-70
2022/08/06 06:46:58;;;;;;;2.60;2.00;;;;;;;24.56;41.03;98183.78;5033645;28;20466;-70
2022/08/06 06:49:32;;;;;;;3.17;1.63;;;;;;;24.62;40.99;98190.13;5038623;28;20449;-70
2022/08/06 06:52:08;;;;;;;6.10;1.90;;;;;;;24.54;40.40;98186.66;5037911;28;20475;-70
2022/08/06 06:54:39;;;;;;;3.00;1.80;;;;;;;24.72;40.81;98185.13;5038402;28;20953;-69
2022/08/06 06:57:06;;;;;;;3.03;2.07;;;;;;;24.77;40.30;98185.25;5042306;28;20916;-70
2022/08/06 06:59:35;;;;;;;4.87;1.97;;;;;;;24.84;40.62;98187.88;5040548;28;20554;-69
2022/08/06 07:02:02;;;;;;;4.17;2.10;;;;;;;24.91;40.57;98196.69;5045203;28;20951;-70
2022/08/06 07:04:28;;;;;;;2.97;1.90;;;;;;;24.95;40.09;98187.16;5044686;28;20449;-71
2022/08/06 07:06:56;;;;;;;6.77;1.83;;;;;;;25.09;40.16;98195.91;5032861;28;20466;-69
2022/08/06 07:09:24;;;;;;;3.17;1.70;;;;;;;25.25;40.17;98186.44;5037587;28;20187;-70
2022/08/06 07:11:51;;;;;;;4.93;1.50;;;;;;;25.40;39.89;98187.91;5035761;28;20427;-70
2022/08/06 07:14:18;;;;;;;4.17;2.03;;;;;;;25.40;39.30;98201.34;5047437;28;20575;-69
2022/08/06 07:16:44;;;;;;;2.97;1.93;;;;;;;25.34;39.21;98200.38;5041448;28;20446;-69
2022/08/06 07:19:10;;;;;;;4.83;1.93;;;;;;;25.05;39.83;98207.28;5047185;28;20426;-71
2022/08/06 07:21:38;;;;;;;2.00;1.80;;;;;;;25.01;40.13;98196.19;5045983;28;20432;-69
2022/08/06 07:24:05;;;;;;;4.77;1.90;;;;;;;24.96;40.51;98198.72;5034006;28;20450;-72
2022/08/06 07:26:30;;;;;;;3.70;2.30;;;;;;;24.88;40.29;98199.00;5039731;28;20944;-69
2022/08/06 07:28:56;;;;;;;4.20;2.50;;;;;;;24.82;40.06;98195.34;5029748;28;20509;-69
2022/08/06 07:31:26;;;;;;;3.77;3.10;;;;;;;24.74;40.27;98200.97;5033909;28;20191;-70
2022/08/06 07:33:52;;;;;;;3.70;3.00;;;;;;;24.73;40.44;98202.00;5033533;28;20289;-70
2022/08/06 07:36:18;;;;;;;2.50;2.07;;;;;;;24.73;40.42;98208.19;5043659;28;20481;-71
2022/08/06 07:38:45;;;;;;;2.23;1.80;;;;;;;24.80;40.68;98208.94;5042707;28;20191;-70
2022/08/06 07:41:11;;;;;;;2.33;1.90;;;;;;;24.85;40.31;98210.97;5042664;28;20423;-71
2022/08/06 07:43:44;;;;;;;4.07;2.00;;;;;;;25.07;40.92;98213.25;5042720;28;20852;-70
2022/08/06 07:46:13;;;;;;;5.03;2.10;;;;;;;25.18;40.16;98217.88;5044641;28;21061;-70
2022/08/06 07:48:46;;;;;;;3.80;1.93;;;;;;;25.35;39.56;98217.28;5043299;28;21079;-71
2022/08/06 07:51:12;;;;;;;5.20;1.90;;;;;;;25.50;39.43;98220.44;5030225;28;20430;-70
2022/08/06 07:53:39;;;;;;;5.03;1.70;;;;;;;25.73;38.82;98214.38;5044297;28;20575;-69
2022/08/06 07:56:06;;;;;;;1.70;1.60;;;;;;;25.92;38.94;98217.00;5039694;28;20520;-70
2022/08/06 07:58:33;;;;;;;2.53;1.80;;;;;;;26.09;37.58;98222.56;5041129;28;20474;-70
2022/08/06 08:00:59;;;;;;;5.13;1.80;;;;;;;26.16;38.00;98207.22;5040779;28;20479;-70
2022/08/06 08:06:17;;;;;;;2.17;1.70;;;;;;;26.36;37.93;98206.06;5046209;28;20543;-71
2022/08/06 08:08:44;;;;;;;2.60;2.10;;;;;;;26.51;37.50;98208.34;5045011;28;20432;-70
2022/08/06 08:11:10;;;;;;;3.43;1.90;;;;;;;26.41;37.33;98198.16;5048272;28;20528;-71
2022/08/06 08:13:36;;;;;;;3.73;2.17;;;;;;;26.49;36.78;98205.06;5046343;28;20453;-70
2022/08/06 08:16:03;;;;;;;3.13;1.60;;;;;;;26.58;37.00;98195.59;5048584;28;20210;-70
2022/08/06 08:18:30;;;;;;;3.90;2.00;;;;;;;26.37;36.63;98189.75;5044592;28;20425;-70
2022/08/06 08:20:56;;;;;;;3.37;1.73;;;;;;;26.58;37.24;98195.59;5051314;28;20464;-71
2022/08/06 08:23:23;;;;;;;3.70;1.60;;;;;;;26.77;36.50;98185.56;5045441;28;20427;-70
2022/08/06 08:25:49;;;;;;;8.63;1.80;;;;;;;26.92;36.61;98195.88;5045358;28;20453;-71
2022/08/06 08:28:14;;;;;;;2.30;1.90;;;;;;;27.02;36.50;98187.22;5040419;28;20937;-70
2022/08/06 08:30:40;;;;;;;2.37;1.70;;;;;;;27.21;36.39;98185.19;5032362;28;20198;-70
2022/08/06 08:33:06;;;;;;;2.50;1.40;;;;;;;27.38;36.29;98193.34;5038761;28;20176;-69
2022/08/06 08:35:31;;;;;;;2.00;1.70;;;;;;;27.46;35.07;98186.00;5050192;28;20855;-70
2022/08/06 08:37:57;;;;;;;3.50;1.63;;;;;;;27.62;34.41;98187.13;5038231;28;20278;-68
2022/08/06 08:40:22;;;;;;;2.40;1.67;;;;;;;27.64;34.70;98188.50;5050481;28;20190;-68
2022/08/06 08:42:53;;;;;;;1.63;1.50;;;;;;;27.71;34.48;98197.28;5034557;28;20275;-70
2022/08/06 08:45:19;;;;;;;3.10;1.77;;;;;;;27.77;33.46;98200.06;5050635;28;20207;-69
2022/08/06 08:47:50;;;;;;;5.83;1.60;;;;;;;27.84;33.71;98198.84;5037712;28;20510;-68
2022/08/06 08:50:20;;;;;;;4.47;1.70;;;;;;;28.00;33.69;98201.84;5042955;28;20426;-71
2022/08/06 08:52:48;;;;;;;2.53;1.50;;;;;;;28.03;33.27;98199.47;5048117;28;20428;-71
2022/08/06 08:55:15;;;;;;;6.70;2.10;;;;;;;28.22;32.92;98195.78;5043000;28;20493;-69
2022/08/06 08:57:41;;;;;;;2.23;1.60;;;;;;;28.37;33.04;98196.03;5032637;28;20454;-69
2022/08/06 09:00:07;;;;;;;3.53;1.47;;;;;;;28.46;32.74;98202.66;5038178;28;20531;-71
2022/08/06 09:02:33;;;;;;;3.20;2.07;;;;;;;27.91;33.03;98201.41;5050823;28;20176;-69
2022/08/06 09:04:59;;;;;;;3.00;1.50;;;;;;;27.66;33.63;98212.53;5043218;28;20446;-71
2022/08/06 09:07:26;;;;;;;5.87;1.90;;;;;;;27.04;34.25;98203.94;5043457;28;20218;-69
2022/08/06 09:09:51;;;;;;;8.47;1.83;;;;;;;26.82;35.07;98211.78;5047197;28;20261;-70
2022/08/06 09:12:17;;;;;;;2.13;1.80;;;;;;;26.72;35.06;98209.63;5044351;28;20916;-71
2022/08/06 09:14:45;;;;;;;3.67;1.60;;;;;;;26.77;35.12;98211.66;5049724;28;20203;-69
2022/08/06 09:17:11;;;;;;;1.60;1.50;;;;;;;26.73;34.93;98211.28;5025036;28;20168;-70
2022/08/06 09:19:37;;;;;;;1.57;1.40;;;;;;;26.69;35.03;98210.13;5051812;28;20432;-69
2022/08/06 09:22:03;;;;;;;3.10;1.60;;;;;;;26.63;35.41;98211.88;5043205;28;20275;-69
2022/08/06 09:24:29;;;;;;;3.70;2.27;;;;;;;26.60;34.90;98212.31;5020053;28;20199;-69
2022/08/06 09:27:01;;;;;;;3.00;1.60;;;;;;;26.55;34.85;98220.25;5042591;28;21036;-69
2022/08/06 09:29:26;;;;;;;2.80;1.83;;;;;;;26.40;34.86;98215.31;5032040;28;20185;-71
2022/08/06 09:31:52;;;;;;;3.13;1.70;;;;;;;26.29;35.14;98221.50;5035534;28;21114;-69
2022/08/06 09:34:18;;;;;;;2.13;1.80;;;;;;;26.14;35.50;98225.41;5041286;28;20210;-69
2022/08/06 09:36:44;;;;;;;3.60;1.90;;;;;;;25.87;35.91;98228.44;5045614;28;20187;-69
2022/08/06 09:39:10;;;;;;;4.07;1.53;;;;;;;25.84;36.06;98230.75;5036221;28;20184;-69
2022/08/06 09:41:45;;;;;;;3.00;2.00;;;;;;;25.91;36.21;98224.25;5047983;28;20500;-69
2022/08/06 09:44:11;;;;;;;2.13;1.87;;;;;;;25.94;36.03;98222.16;5044128;28;20268;-70
2022/08/06 09:46:39;;;;;;;3.93;1.80;;;;;;;26.01;36.60;98215.66;5048599;28;20465;-69
2022/08/06 09:49:04;;;;;;;3.10;1.60;;;;;;;26.01;36.15;98215.66;5045751;28;20232;-70
2022/08/06 09:51:32;;;;;;;2.43;1.67;;;;;;;26.04;36.05;98214.38;5033403;28;20425;-70
2022/08/06 09:53:59;;;;;;;2.50;1.60;;;;;;;26.04;35.82;98225.94;5045686;28;20195;-70
2022/08/06 09:56:25;;;;;;;3.67;2.27;;;;;;;26.04;35.44;98222.44;5042304;28;20524;-69
2022/08/06 09:59:01;;;;;;;4.07;2.50;;;;;;;26.11;35.37;98217.81;5047551;28;20414;-68
2022/08/06 10:01:27;;;;;;;5.57;2.43;;;;;;;26.14;36.16;98219.25;5041163;28;20421;-71
2022/08/06 10:03:55;;;;;;;3.80;2.03;;;;;;;26.15;36.05;98220.88;5045557;28;20449;-69
2022/08/06 10:06:20;;;;;;;3.07;2.00;;;;;;;26.18;36.15;98228.47;5039346;28;20457;-70
2022/08/06 10:08:51;;;;;;;2.13;1.73;;;;;;;26.22;35.93;98227.78;5037457;28;20417;-69
2022/08/06 10:11:38;;;;;;;2.93;2.13;;;;;;;26.16;36.37;98217.97;5045222;28;20252;-69
2022/08/06 10:14:04;;;;;;;2.07;1.83;;;;;;;26.13;36.16;98229.16;5048099;28;20456;-69
2022/08/06 10:16:30;;;;;;;2.43;2.00;;;;;;;26.11;36.29;98227.75;5045599;28;20418;-70
2022/08/06 10:18:57;;;;;;;4.87;2.50;;;;;;;26.07;36.10;98224.69;5045497;28;20528;-70
2022/08/06 10:21:32;;;;;;;3.30;1.90;;;;;;;26.22;36.13;98222.41;5045968;28;20179;-70
2022/08/06 10:24:02;;;;;;;4.43;2.13;;;;;;;26.32;36.20;98226.41;5035304;28;20998;-70
2022/08/06 10:26:30;;;;;;;3.63;1.80;;;;;;;26.43;35.21;98220.25;5048148;28;20536;-70
2022/08/06 10:29:02;;;;;;;4.20;2.00;;;;;;;26.51;35.03;98219.91;5028265;28;20820;-70
2022/08/06 10:31:28;;;;;;;3.50;1.70;;;;;;;26.54;35.48;98224.00;5024446;28;20793;-70
2022/08/06 10:34:02;;;;;;;4.60;1.77;;;;;;;26.58;35.09;98219.00;5034804;28;20473;-70
2022/08/06 10:36:40;;;;;;;3.33;2.10;;;;;;;26.53;34.08;98215.13;5007584;28;20202;-70
2022/08/06 10:39:06;;;;;;;8.10;1.93;;;;;;;26.48;34.51;98214.97;5038590;28;20416;-69
2022/08/06 10:41:34;;;;;;;1.73;1.37;;;;;;;26.50;34.39;98218.25;5042455;28;20417;-70
2022/08/06 10:44:01;;;;;;;3.83;2.33;;;;;;;26.59;34.38;98215.25;5038205;28;20207;-69
2022/08/06 10:46:28;;;;;;;2.63;1.67;;;;;;;26.65;34.45;98217.00;5046806;28;20481;-70
2022/08/06 10:48:53;;;;;;;3.67;1.97;;;;;;;26.71;34.29;98217.94;5044932;28;20968;-70
2022/08/06 10:51:19;;;;;;;3.30;1.70;;;;;;;26.79;33.64;98220.31;5039664;28;20454;-72
2022/08/06 10:53:45;;;;;;;2.90;2.10;;;;;;;26.93;33.72;98212.84;5045991;28;20207;-69
2022/08/06 10:56:14;;;;;;;2.27;1.70;;;;;;;27.22;34.14;98208.38;5040548;28;20756;-70
2022/08/06 10:58:41;;;;;;;3.30;1.90;;;;;;;27.68;32.94;98211.22;5039900;28;20425;-70
2022/08/06 11:01:15;;;;;;;1.60;1.50;;;;;;;28.02;32.86;98205.91;5039602;28;20455;-71
2022/08/06 11:03:58;;;;;;;3.63;1.80;;;;;;;28.41;30.78;98202.59;5047431;28;20437;-70
2022/08/06 11:06:41;;;;;;;2.30;1.80;;;;;;;28.79;30.47;98205.63;5041652;28;20552;-72
2022/08/06 11:09:19;;;;;;;4.03;1.80;;;;;;;29.03;30.56;98202.72;5045115;28;20944;-70
2022/08/06 11:12:13;;;;;;;2.80;2.10;;;;;;;28.96;29.91;98198.31;5039994;28;20472;-69
2022/08/06 11:14:39;;;;;;;2.60;1.63;;;;;;;28.64;29.87;98198.09;5035513;28;20434;-69
2022/08/06 11:17:05;;;;;;;3.40;1.77;;;;;;;28.54;30.47;98198.72;5040433;28;20415;-71
2022/08/06 11:19:42;;;;;;;4.90;1.70;;;;;;;28.71;31.01;98189.81;5050260;28;20448;-71
2022/08/06 11:22:08;;;;;;;7.40;1.90;;;;;;;28.71;29.81;98190.63;5039068;28;20491;-69
2022/08/06 11:24:50;;;;;;;3.10;2.00;;;;;;;28.73;30.06;98183.16;5042749;28;20433;-70
2022/08/06 11:27:46;;;;;;;2.70;1.70;;;;;;;28.85;31.06;98185.75;5040425;28;20235;-71
2022/08/06 11:30:12;;;;;;;3.83;1.90;;;;;;;28.94;30.50;98180.72;5032162;28;20426;-69
2022/08/06 11:32:52;;;;;;;1.93;1.60;;;;;;;28.88;30.23;98170.94;5034484;28;20809;-71
2022/08/06 11:35:32;;;;;;;2.67;1.87;;;;;;;28.81;30.36;98184.59;5046716;28;20286;-70
2022/08/06 11:38:07;;;;;;;2.60;1.40;;;;;;;28.78;30.70;98185.09;5039271;28;20437;-70
2022/08/06 11:40:53;;;;;;;2.90;1.40;;;;;;;28.61;30.57;98180.50;5039406;28;20424;-70
2022/08/06 11:43:40;;;;;;;3.00;1.90;;;;;;;28.64;31.22;98169.22;5044776;28;20418;-71
2022/08/06 11:46:24;;;;;;;1.80;1.70;;;;;;;28.73;30.42;98163.47;5049898;28;20458;-69